Time;durP1;ratioP1;P1;durP2;ratioP2;P2;SDS_P1;SDS_P2;PMS_P1;PMS_P2;Temp;Humidity;BMP_temperature;BMP_pressure;BME280_temperature;BME280_humidity;BME280_pressure;Samples;Min_cycle;Max_cycle;Signal;HPM_P1;HPM_P2
2022/03/29 00:00:59;;;;;;;;;;;;;;;23.00;36.44;100139.94;20696554;27;98941;-76
2022/03/29 00:11:00;;;;;;;;;;;;;;;22.97;36.96;100126.16;20730411;27;97307;-76
2022/03/29 00:21:01;;;;;;;;;;;;;;;22.94;37.69;100107.97;20725768;27;97899;-76
2022/03/29 00:31:02;;;;;;;;;;;;;;;22.93;37.47;100101.84;20712733;27;101077;-76
2022/03/29 00:41:03;;;;;;;;;;;;;;;22.93;37.44;100085.19;20691634;27;97819;-76
2022/03/29 00:51:04;;;;;;;;;;;;;;;22.90;37.31;100075.72;20683373;27;98022;-76
2022/03/29 01:01:05;;;;;;;;;;;;;;;22.90;37.39;100065.16;20680241;27;97869;-77
2022/03/29 01:11:06;;;;;;;;;;;;;;;22.88;36.91;100042.53;20722996;27;100126;-76
2022/03/29 01:21:06;;;;;;;;;;;;;;;22.88;37.44;100040.72;20718065;27;96910;-77
2022/03/29 01:31:07;;;;;;;;;;;;;;;22.85;37.32;100039.19;20726624;27;98352;-76
2022/03/29 01:41:09;;;;;;;;;;;;;;;22.82;37.75;100036.81;20691324;27;97695;-76
2022/03/29 01:51:28;;;;;;;;;;;;;;;22.83;37.67;100011.25;20681681;27;97849;-76
2022/03/29 02:01:29;;;;;;;;;;;;;;;22.81;37.41;99986.78;20676815;27;101395;-76
2022/03/29 02:11:29;;;;;;;;;;;;;;;22.79;37.62;99976.38;20676295;27;99504;-76
2022/03/29 02:21:30;;;;;;;;;;;;;;;22.81;38.02;99958.59;20678402;27;97238;-76
2022/03/29 02:31:30;;;;;;;;;;;;;;;22.81;37.33;99955.97;20679833;27;97563;-76
2022/03/29 02:41:31;;;;;;;;;;;;;;;22.75;37.53;99955.69;20682635;27;99184;-76
2022/03/29 02:51:31;;;;;;;;;;;;;;;22.75;37.54;99960.97;20696315;27;99412;-76
2022/03/29 03:01:32;;;;;;;;;;;;;;;22.71;37.61;99950.66;20699117;27;97349;-76
2022/03/29 03:11:32;;;;;;;;;;;;;;;22.70;37.52;99943.75;20724961;27;97043;-77
2022/03/29 03:21:33;;;;;;;;;;;;;;;22.67;37.97;99938.72;20721026;27;97646;-76
2022/03/29 03:31:36;;;;;;;;;;;;;;;22.69;38.14;99925.38;20718429;27;101659;-76
2022/03/29 03:41:39;;;;;;;;;;;;;;;22.67;38.02;99922.06;20689483;27;100977;-76
2022/03/29 03:51:40;;;;;;;;;;;;;;;22.67;38.29;99914.16;20703829;27;97599;-76
2022/03/29 04:01:43;;;;;;;;;;;;;;;22.67;38.13;99920.25;20705891;27;97427;-76
2022/03/29 04:11:44;;;;;;;;;;;;;;;22.70;37.82;99906.78;20694672;27;98921;-77
2022/03/29 04:21:44;;;;;;;;;;;;;;;22.82;39.43;99902.16;20697443;27;98397;-77
2022/03/29 04:31:45;;;;;;;;;;;;;;;22.93;40.27;99892.44;20719904;27;100206;-78
2022/03/29 04:41:45;;;;;;;;;;;;;;;22.97;40.35;99891.19;20709346;27;97133;-77
2022/03/29 04:51:46;;;;;;;;;;;;;;;22.83;40.28;99876.63;20708962;27;98168;-78
2022/03/29 05:01:46;;;;;;;;;;;;;;;22.81;39.80;99882.06;20697652;27;100872;-76
2022/03/29 05:11:48;;;;;;;;;;;;;;;22.75;39.31;99876.50;20720441;27;100478;-76
2022/03/29 05:21:48;;;;;;;;;;;;;;;22.74;38.95;99878.31;20721839;27;97497;-76
2022/03/29 05:31:48;;;;;;;;;;;;;;;22.67;39.05;99883.31;20716080;27;98024;-75
2022/03/29 05:41:49;;;;;;;;;;;;;;;22.74;39.23;99888.03;20701749;27;98030;-76
2022/03/29 05:51:52;;;;;;;;;;;;;;;22.82;39.49;99891.63;20711675;27;100655;-75
2022/03/29 06:01:53;;;;;;;;;;;;;;;22.67;39.18;99888.59;20715702;27;98037;-77
2022/03/29 06:11:53;;;;;;;;;;;;;;;22.69;39.51;99876.09;20711485;27;97128;-77
2022/03/29 06:21:54;;;;;;;;;;;;;;;22.67;39.21;99878.03;20716210;27;97018;-78
2022/03/29 06:31:54;;;;;;;;;;;;;;;22.67;39.11;99887.78;20695167;27;97894;-77
2022/03/29 06:41:55;;;;;;;;;;;;;;;22.66;39.23;99871.09;20709138;27;97077;-76
2022/03/29 06:51:56;;;;;;;;;;;;;;;22.70;38.97;99861.09;20708278;27;97400;-77
2022/03/29 07:01:56;;;;;;;;;;;;;;;22.76;39.21;99863.16;20712940;27;97485;-77
2022/03/29 07:11:57;;;;;;;;;;;;;;;22.73;39.39;99857.31;20705703;27;100549;-78
2022/03/29 07:21:58;;;;;;;;;;;;;;;22.75;38.90;99844.81;20713068;27;98966;-77
2022/03/29 07:31:58;;;;;;;;;;;;;;;22.77;38.95;99846.34;20707417;27;97900;-75
2022/03/29 07:41:58;;;;;;;;;;;;;;;22.79;38.96;99846.19;20722618;27;97458;-76
2022/03/29 07:51:59;;;;;;;;;;;;;;;22.81;38.87;99828.41;20727523;27;97003;-77
2022/03/29 08:01:59;;;;;;;;;;;;;;;22.84;38.63;99834.25;20732373;27;98170;-75
2022/03/29 08:12:03;;;;;;;;;;;;;;;22.86;38.72;99828.81;20720073;27;97069;-77
2022/03/29 08:22:03;;;;;;;;;;;;;;;22.90;39.16;99824.94;20725427;27;97429;-76
2022/03/29 08:32:04;;;;;;;;;;;;;;;22.98;39.62;99821.56;20686520;27;97325;-77
2022/03/29 08:42:04;;;;;;;;;;;;;;;23.07;39.10;99806.66;20703348;27;97850;-80
2022/03/29 08:52:06;;;;;;;;;;;;;;;23.09;39.74;99799.41;20702128;27;96930;-77
2022/03/29 09:02:13;;;;;;;;;;;;;;;23.13;39.58;99791.06;20704272;27;97841;-77
2022/03/29 09:12:15;;;;;;;;;;;;;;;23.15;40.03;99781.16;20701642;27;99137;-78
2022/03/29 09:22:34;;;;;;;;;;;;;;;23.19;39.63;99771.16;20704092;27;99545;-79
2022/03/29 09:32:49;;;;;;;;;;;;;;;23.22;39.91;99759.47;20707391;27;97004;-79
2022/03/29 09:43:04;;;;;;;;;;;;;;;23.25;39.60;99749.44;20721606;27;99494;-79
2022/03/29 09:53:05;;;;;;;;;;;;;;;23.30;39.48;99739.28;20722366;27;96993;-78
2022/03/29 10:03:13;;;;;;;;;;;;;;;23.35;39.74;99728.25;20709404;27;102112;-77
2022/03/29 10:13:16;;;;;;;;;;;;;;;23.39;39.70;99700.56;20710491;27;103302;-76
2022/03/29 10:23:21;;;;;;;;;;;;;;;23.44;39.65;99693.03;20708283;27;98649;-76
2022/03/29 10:33:29;;;;;;;;;;;;;;;23.50;39.56;99670.47;20704360;27;100952;-76
2022/03/29 10:43:30;;;;;;;;;;;;;;;23.57;39.76;99654.81;20693517;27;97328;-76
2022/03/29 10:53:35;;;;;;;;;;;;;;;23.63;39.52;99633.06;20703303;27;98130;-77
2022/03/29 11:03:56;;;;;;;;;;;;;;;23.51;30.70;99643.06;20711445;27;97869;-78
2022/03/29 11:14:16;;;;;;;;;;;;;;;23.58;34.50;99614.19;20717720;27;101211;-78
2022/03/29 11:24:20;;;;;;;;;;;;;;;23.59;34.55;99584.97;20724837;27;97631;-78
2022/03/29 11:34:22;;;;;;;;;;;;;;;23.66;36.15;99575.44;20730008;27;98164;-79
2022/03/29 11:44:24;;;;;;;;;;;;;;;23.70;36.29;99559.28;20734098;27;97706;-79
2022/03/29 11:54:24;;;;;;;;;;;;;;;23.76;35.94;99540.97;20731648;27;97803;-79
2022/03/29 12:04:25;;;;;;;;;;;;;;;23.78;34.91;99533.72;20710705;27;100871;-77
2022/03/29 12:14:26;;;;;;;;;;;;;;;23.81;35.10;99524.66;20728718;27;97213;-77
2022/03/29 12:24:27;;;;;;;;;;;;;;;23.83;34.03;99505.00;20729709;27;98027;-78
2022/03/29 12:34:29;;;;;;;;;;;;;;;23.88;35.55;99493.94;20756854;27;96897;-79
2022/03/29 12:44:38;;;;;;;;;;;;;;;24.05;40.73;99486.13;20744496;27;97751;-78
2022/03/29 12:54:47;;;;;;;;;;;;;;;24.20;41.63;99459.88;20720445;27;100504;-77
2022/03/29 13:04:49;;;;;;;;;;;;;;;24.30;40.91;99447.34;20714553;27;98367;-77
2022/03/29 13:14:50;;;;;;;;;;;;;;;24.34;39.35;99427.53;20715028;27;98631;-76
2022/03/29 13:24:52;;;;;;;;;;;;;;;24.28;27.99;99430.81;20707500;27;98413;-78
2022/03/29 13:34:52;;;;;;;;;;;;;;;24.18;25.58;99409.81;20713348;27;101253;-77
2022/03/29 13:44:53;;;;;;;;;;;;;;;24.14;29.57;99400.53;20699988;27;98268;-76
2022/03/29 13:54:53;;;;;;;;;;;;;;;24.10;29.13;99385.97;20700260;27;98346;-77
2022/03/29 14:04:54;;;;;;;;;;;;;;;24.10;25.53;99370.13;20678616;27;97510;-77
2022/03/29 14:14:55;;;;;;;;;;;;;;;24.06;27.23;99368.75;20677266;27;99533;-77
2022/03/29 14:24:55;;;;;;;;;;;;;;;24.02;25.29;99365.63;20704762;27;100650;-77
2022/03/29 14:34:55;;;;;;;;;;;;;;;23.93;21.75;99356.84;20722127;27;97070;-77
2022/03/29 14:44:56;;;;;;;;;;;;;;;23.88;21.42;99364.41;20735206;27;97907;-78
2022/03/29 14:54:57;;;;;;;;;;;;;;;23.91;23.88;99355.31;20730802;27;102513;-78
2022/03/29 15:04:57;;;;;;;;;;;;;;;23.93;22.61;99330.41;20736710;27;101582;-76
2022/03/29 15:14:58;;;;;;;;;;;;;;;23.90;23.20;99324.59;20736333;27;98052;-76
2022/03/29 15:24:58;;;;;;;;;;;;;;;23.80;22.42;99311.50;20743933;27;97094;-76
2022/03/29 15:34:59;;;;;;;;;;;;;;;23.69;22.93;99307.34;20748854;27;99987;-77
2022/03/29 15:45:00;;;;;;;;;;;;;;;23.62;23.43;99299.25;20749485;27;98753;-77
2022/03/29 15:55:02;;;;;;;;;;;;;;;23.49;23.46;99304.19;20742810;27;97342;-77
2022/03/29 16:05:03;;;;;;;;;;;;;;;23.38;23.54;99297.38;20735910;27;97110;-75
2022/03/29 16:15:11;;;;;;;;;;;;;;;23.31;24.03;99286.63;20723237;27;97878;-75
2022/03/29 16:25:12;;;;;;;;;;;;;;;23.28;24.92;99284.28;20716063;27;100258;-78
2022/03/29 16:35:13;;;;;;;;;;;;;;;23.31;26.40;99291.91;20724779;27;97041;-77
2022/03/29 16:45:13;;;;;;;;;;;;;;;23.27;27.51;99290.56;20725643;27;97229;-78
2022/03/29 16:55:15;;;;;;;;;;;;;;;23.17;25.34;99282.75;20727926;27;96994;-78
2022/03/29 17:05:17;;;;;;;;;;;;;;;23.00;23.91;99281.81;20690864;27;98731;-79
2022/03/29 17:15:17;;;;;;;;;;;;;;;23.01;24.87;99285.31;20709330;27;97581;-80
2022/03/29 17:25:18;;;;;;;;;;;;;;;23.20;27.50;99281.59;20709583;27;97097;-75
2022/03/29 17:35:18;;;;;;;;;;;;;;;23.30;26.78;99281.47;20720193;27;96892;-74
2022/03/29 17:45:19;;;;;;;;;;;;;;;23.47;27.28;99277.06;20714928;27;97555;-76
2022/03/29 17:55:20;;;;;;;;;;;;;;;23.63;28.96;99278.94;20716143;27;98610;-74
2022/03/29 18:05:20;;;;;;;;;;;;;;;23.77;29.73;99290.72;20709812;27;97401;-75
2022/03/29 18:15:21;;;;;;;;;;;;;;;23.90;31.07;99287.56;20698140;27;97117;-81
2022/03/29 18:25:21;;;;;;;;;;;;;;;23.96;32.33;99274.56;20707117;27;97578;-76
2022/03/29 18:35:22;;;;;;;;;;;;;;;23.93;32.09;99269.59;20701532;27;97020;-76
2022/03/29 18:45:22;;;;;;;;;;;;;;;23.90;32.49;99280.47;20698070;27;98541;-75
2022/03/29 18:55:26;;;;;;;;;;;;;;;23.84;33.06;99289.06;20707131;27;101727;-74
2022/03/29 19:05:29;;;;;;;;;;;;;;;23.81;33.03;99278.81;20736997;27;98039;-75
2022/03/29 19:15:29;;;;;;;;;;;;;;;23.77;33.39;99280.13;20705741;27;97151;-75
2022/03/29 19:25:31;;;;;;;;;;;;;;;23.75;33.57;99274.16;20718747;27;97579;-75
2022/03/29 19:35:31;;;;;;;;;;;;;;;23.70;33.88;99272.00;20746974;27;97313;-76
2022/03/29 19:45:32;;;;;;;;;;;;;;;23.69;33.97;99269.53;20740149;27;99811;-74
2022/03/29 19:55:32;;;;;;;;;;;;;;;23.62;34.20;99269.34;20726278;27;99642;-75
2022/03/29 20:05:33;;;;;;;;;;;;;;;23.61;34.14;99275.66;20731902;27;98378;-75
2022/03/29 20:15:33;;;;;;;;;;;;;;;23.58;34.47;99266.22;20723138;27;97244;-75
2022/03/29 20:25:34;;;;;;;;;;;;;;;23.57;34.70;99261.94;20710151;27;97291;-75
2022/03/29 20:35:40;;;;;;;;;;;;;;;23.54;34.79;99253.50;20705425;27;99874;-75
2022/03/29 20:45:41;;;;;;;;;;;;;;;23.54;35.05;99250.84;20710866;27;101132;-75
2022/03/29 20:55:42;;;;;;;;;;;;;;;23.53;35.30;99243.91;20709482;27;97744;-75
2022/03/29 21:05:42;;;;;;;;;;;;;;;23.50;35.46;99231.84;20697729;27;102451;-75
2022/03/29 21:15:42;;;;;;;;;;;;;;;23.49;35.32;99228.38;20694433;27;98695;-75
2022/03/29 21:25:43;;;;;;;;;;;;;;;23.49;35.39;99224.91;20704749;27;97760;-75
2022/03/29 21:35:44;;;;;;;;;;;;;;;23.46;35.40;99231.34;20702109;27;100140;-75
2022/03/29 21:45:45;;;;;;;;;;;;;;;23.44;35.93;99220.13;20707811;27;97424;-75
2022/03/29 21:55:45;;;;;;;;;;;;;;;23.44;35.76;99214.81;20695336;27;97964;-76
2022/03/29 22:05:46;;;;;;;;;;;;;;;23.42;35.89;99221.25;20693755;27;97511;-76
2022/03/29 22:15:46;;;;;;;;;;;;;;;23.39;36.05;99213.66;20697953;27;103964;-76
2022/03/29 22:25:48;;;;;;;;;;;;;;;23.37;36.07;99199.81;20703069;27;100266;-76
2022/03/29 22:35:49;;;;;;;;;;;;;;;23.33;36.00;99189.53;20704397;27;98375;-75
2022/03/29 22:45:49;;;;;;;;;;;;;;;23.32;36.55;99177.31;20706917;27;100434;-75
2022/03/29 22:55:50;;;;;;;;;;;;;;;23.31;36.59;99177.50;20698069;27;96917;-78
2022/03/29 23:05:50;;;;;;;;;;;;;;;23.30;36.34;99174.03;20705428;27;98707;-73
2022/03/29 23:15:51;;;;;;;;;;;;;;;23.28;36.59;99178.66;20706991;27;98889;-75
2022/03/29 23:25:51;;;;;;;;;;;;;;;23.30;36.43;99178.47;20716606;27;98165;-75
2022/03/29 23:35:51;;;;;;;;;;;;;;;23.25;36.82;99176.31;20710063;27;99128;-74
2022/03/29 23:45:52;;;;;;;;;;;;;;;23.25;36.72;99181.59;20718746;27;97171;-74
2022/03/29 23:55:53;;;;;;;;;;;;;;;23.25;36.91;99176.31;20717283;27;101546;-75
